sensor_id;sensor_type;location;lat;lon;timestamp;temperature;humidity
3846;DHT22;1938;50.812;7.738;2023-08-21T00:01:36;20.50;1.00
3846;DHT22;1938;50.812;7.738;2023-08-21T00:04:02;20.60;1.00
3846;DHT22;1938;50.812;7.738;2023-08-21T00:06:28;20.50;1.00
3846;DHT22;1938;50.812;7.738;2023-08-21T00:08:54;20.50;1.00
3846;DHT22;1938;50.812;7.738;2023-08-21T00:11:19;20.50;1.00
3846;DHT22;1938;50.812;7.738;2023-08-21T00:13:45;20.50;1.00
3846;DHT22;1938;50.812;7.738;2023-08-21T00:16:13;20.50;1.00
3846;DHT22;1938;50.812;7.738;2023-08-21T00:18:38;20.50;1.00
3846;DHT22;1938;50.812;7.738;2023-08-21T00:21:04;20.50;1.00
3846;DHT22;1938;50.812;7.738;2023-08-21T00:23:30;20.50;99.90
3846;DHT22;1938;50.812;7.738;2023-08-21T00:25:56;20.50;99.90
3846;DHT22;1938;50.812;7.738;2023-08-21T00:28:22;20.50;1.00
3846;DHT22;1938;50.812;7.738;2023-08-21T00:30:47;20.40;1.00
3846;DHT22;1938;50.812;7.738;2023-08-21T00:33:14;20.40;1.00
3846;DHT22;1938;50.812;7.738;2023-08-21T00:35:39;20.40;1.00
3846;DHT22;1938;50.812;7.738;2023-08-21T00:38:05;20.50;1.00
3846;DHT22;1938;50.812;7.738;2023-08-21T00:40:31;20.40;1.00
3846;DHT22;1938;50.812;7.738;2023-08-21T00:42:56;20.40;1.00
3846;DHT22;1938;50.812;7.738;2023-08-21T00:45:22;20.40;1.00
3846;DHT22;1938;50.812;7.738;2023-08-21T00:47:48;20.30;4.00
3846;DHT22;1938;50.812;7.738;2023-08-21T00:50:14;20.20;65.80
3846;DHT22;1938;50.812;7.738;2023-08-21T00:52:43;20.20;51.30
3846;DHT22;1938;50.812;7.738;2023-08-21T00:55:10;20.30;99.90
3846;DHT22;1938;50.812;7.738;2023-08-21T00:57:37;20.20;99.90
3846;DHT22;1938;50.812;7.738;2023-08-21T01:00:04;20.20;99.90
3846;DHT22;1938;50.812;7.738;2023-08-21T01:02:30;20.20;99.90
3846;DHT22;1938;50.812;7.738;2023-08-21T01:04:56;20.20;99.90
3846;DHT22;1938;50.812;7.738;2023-08-21T01:07:21;20.20;99.90
3846;DHT22;1938;50.812;7.738;2023-08-21T01:09:57;20.20;99.90
3846;DHT22;1938;50.812;7.738;2023-08-21T01:15:06;20.10;99.90
3846;DHT22;1938;50.812;7.738;2023-08-21T01:17:34;20.10;99.90
3846;DHT22;1938;50.812;7.738;2023-08-21T01:20:02;20.10;99.90
3846;DHT22;1938;50.812;7.738;2023-08-21T01:22:38;20.10;99.90
3846;DHT22;1938;50.812;7.738;2023-08-21T01:25:06;20.10;99.90
3846;DHT22;1938;50.812;7.738;2023-08-21T01:27:33;20.00;1.00
3846;DHT22;1938;50.812;7.738;2023-08-21T01:30:00;19.90;1.00
3846;DHT22;1938;50.812;7.738;2023-08-21T01:35:04;19.80;99.90
3846;DHT22;1938;50.812;7.738;2023-08-21T01:37:30;19.80;99.90
3846;DHT22;1938;50.812;7.738;2023-08-21T01:39:59;19.80;99.90
3846;DHT22;1938;50.812;7.738;2023-08-21T01:42:25;19.70;1.00
3846;DHT22;1938;50.812;7.738;2023-08-21T01:44:50;19.70;99.90
3846;DHT22;1938;50.812;7.738;2023-08-21T01:47:17;19.40;23.50
3846;DHT22;1938;50.812;7.738;2023-08-21T01:49:43;19.30;99.90
3846;DHT22;1938;50.812;7.738;2023-08-21T01:52:08;19.10;1.00
3846;DHT22;1938;50.812;7.738;2023-08-21T01:54:35;18.90;29.30
3846;DHT22;1938;50.812;7.738;2023-08-21T01:57:00;18.80;92.30
3846;DHT22;1938;50.812;7.738;2023-08-21T01:59:26;18.70;99.90
3846;DHT22;1938;50.812;7.738;2023-08-21T02:01:51;18.70;99.90
3846;DHT22;1938;50.812;7.738;2023-08-21T02:04:17;18.50;99.90
3846;DHT22;1938;50.812;7.738;2023-08-21T02:06:43;18.50;99.90
3846;DHT22;1938;50.812;7.738;2023-08-21T02:09:09;18.40;99.90
3846;DHT22;1938;50.812;7.738;2023-08-21T02:11:35;18.40;99.90
3846;DHT22;1938;50.812;7.738;2023-08-21T02:14:02;18.40;99.90
3846;DHT22;1938;50.812;7.738;2023-08-21T02:16:28;18.30;99.90
3846;DHT22;1938;50.812;7.738;2023-08-21T02:18:53;18.40;99.90
3846;DHT22;1938;50.812;7.738;2023-08-21T02:21:19;18.30;99.90
3846;DHT22;1938;50.812;7.738;2023-08-21T02:23:44;18.30;99.90
3846;DHT22;1938;50.812;7.738;2023-08-21T02:26:10;18.40;99.90
3846;DHT22;1938;50.812;7.738;2023-08-21T02:28:36;18.40;99.90
3846;DHT22;1938;50.812;7.738;2023-08-21T02:31:01;18.50;99.90
3846;DHT22;1938;50.812;7.738;2023-08-21T02:33:27;18.50;99.90
3846;DHT22;1938;50.812;7.738;2023-08-21T02:35:52;18.60;99.90
3846;DHT22;1938;50.812;7.738;2023-08-21T02:38:21;18.60;99.90
3846;DHT22;1938;50.812;7.738;2023-08-21T02:40:47;18.70;99.90
3846;DHT22;1938;50.812;7.738;2023-08-21T02:43:13;18.70;99.90
3846;DHT22;1938;50.812;7.738;2023-08-21T02:45:38;18.70;99.90
3846;DHT22;1938;50.812;7.738;2023-08-21T02:48:04;18.80;99.90
3846;DHT22;1938;50.812;7.738;2023-08-21T02:50:29;18.80;99.90
3846;DHT22;1938;50.812;7.738;2023-08-21T02:52:56;18.90;99.90
3846;DHT22;1938;50.812;7.738;2023-08-21T02:55:22;18.90;99.90
3846;DHT22;1938;50.812;7.738;2023-08-21T02:57:47;18.90;99.90
3846;DHT22;1938;50.812;7.738;2023-08-21T03:00:13;19.00;99.90
3846;DHT22;1938;50.812;7.738;2023-08-21T03:02:38;19.00;99.90
3846;DHT22;1938;50.812;7.738;2023-08-21T03:05:08;19.00;99.90
3846;DHT22;1938;50.812;7.738;2023-08-21T03:07:35;19.00;99.90
3846;DHT22;1938;50.812;7.738;2023-08-21T03:10:01;18.90;99.90
3846;DHT22;1938;50.812;7.738;2023-08-21T03:12:28;18.90;99.90
3846;DHT22;1938;50.812;7.738;2023-08-21T03:14:54;18.80;99.90
3846;DHT22;1938;50.812;7.738;2023-08-21T03:17:20;18.80;99.90
3846;DHT22;1938;50.812;7.738;2023-08-21T03:19:45;18.80;99.90
3846;DHT22;1938;50.812;7.738;2023-08-21T03:22:11;18.80;99.90
3846;DHT22;1938;50.812;7.738;2023-08-21T03:24:36;18.80;99.90
3846;DHT22;1938;50.812;7.738;2023-08-21T03:27:02;18.70;99.90
3846;DHT22;1938;50.812;7.738;2023-08-21T03:29:28;18.70;99.90
3846;DHT22;1938;50.812;7.738;2023-08-21T03:31:53;18.70;99.90
3846;DHT22;1938;50.812;7.738;2023-08-21T03:34:22;18.70;99.90
3846;DHT22;1938;50.812;7.738;2023-08-21T03:36:47;18.70;99.90
3846;DHT22;1938;50.812;7.738;2023-08-21T03:39:13;18.60;99.90
3846;DHT22;1938;50.812;7.738;2023-08-21T03:41:39;18.60;99.90
3846;DHT22;1938;50.812;7.738;2023-08-21T03:44:04;18.60;99.90
3846;DHT22;1938;50.812;7.738;2023-08-21T03:46:30;18.60;99.90
3846;DHT22;1938;50.812;7.738;2023-08-21T03:48:56;18.50;99.90
3846;DHT22;1938;50.812;7.738;2023-08-21T03:51:22;18.50;99.90
3846;DHT22;1938;50.812;7.738;2023-08-21T03:53:48;18.50;99.90
3846;DHT22;1938;50.812;7.738;2023-08-21T03:56:14;18.50;99.90
3846;DHT22;1938;50.812;7.738;2023-08-21T03:58:41;18.50;99.90
3846;DHT22;1938;50.812;7.738;2023-08-21T04:01:06;18.60;99.90
3846;DHT22;1938;50.812;7.738;2023-08-21T04:03:32;18.60;99.90
3846;DHT22;1938;50.812;7.738;2023-08-21T04:05:58;18.60;99.90
3846;DHT22;1938;50.812;7.738;2023-08-21T04:08:24;18.70;99.90
3846;DHT22;1938;50.812;7.738;2023-08-21T04:10:50;18.70;99.90
3846;DHT22;1938;50.812;7.738;2023-08-21T04:13:17;18.80;99.90
3846;DHT22;1938;50.812;7.738;2023-08-21T04:15:49;18.80;99.90
3846;DHT22;1938;50.812;7.738;2023-08-21T04:18:15;18.80;99.90
3846;DHT22;1938;50.812;7.738;2023-08-21T04:20:41;18.90;99.90
3846;DHT22;1938;50.812;7.738;2023-08-21T04:23:07;18.80;99.90
3846;DHT22;1938;50.812;7.738;2023-08-21T04:25:32;18.90;99.90
3846;DHT22;1938;50.812;7.738;2023-08-21T04:27:58;18.90;99.90
3846;DHT22;1938;50.812;7.738;2023-08-21T04:30:23;18.90;99.90
3846;DHT22;1938;50.812;7.738;2023-08-21T04:32:50;19.00;99.90
3846;DHT22;1938;50.812;7.738;2023-08-21T04:35:15;19.10;99.90
3846;DHT22;1938;50.812;7.738;2023-08-21T04:37:46;19.10;99.90
3846;DHT22;1938;50.812;7.738;2023-08-21T04:40:12;19.20;99.90
3846;DHT22;1938;50.812;7.738;2023-08-21T04:42:38;19.30;99.90
3846;DHT22;1938;50.812;7.738;2023-08-21T04:45:04;19.30;87.60
3846;DHT22;1938;50.812;7.738;2023-08-21T04:47:31;19.20;39.80
3846;DHT22;1938;50.812;7.738;2023-08-21T04:49:56;19.30;37.10
3846;DHT22;1938;50.812;7.738;2023-08-21T04:52:22;19.30;56.70
3846;DHT22;1938;50.812;7.738;2023-08-21T04:54:48;19.20;53.10
3846;DHT22;1938;50.812;7.738;2023-08-21T04:57:15;19.30;64.40
3846;DHT22;1938;50.812;7.738;2023-08-21T04:59:40;19.40;46.80
3846;DHT22;1938;50.812;7.738;2023-08-21T05:02:06;19.40;9.70
3846;DHT22;1938;50.812;7.738;2023-08-21T05:04:32;19.50;5.70
3846;DHT22;1938;50.812;7.738;2023-08-21T05:06:58;19.50;1.00
3846;DHT22;1938;50.812;7.738;2023-08-21T05:09:24;19.60;1.00
3846;DHT22;1938;50.812;7.738;2023-08-21T05:11:49;19.70;99.90
3846;DHT22;1938;50.812;7.738;2023-08-21T05:14:15;19.90;99.90
3846;DHT22;1938;50.812;7.738;2023-08-21T05:16:41;20.00;99.90
3846;DHT22;1938;50.812;7.738;2023-08-21T05:19:07;20.20;97.40
3846;DHT22;1938;50.812;7.738;2023-08-21T05:21:33;20.50;99.90
3846;DHT22;1938;50.812;7.738;2023-08-21T05:23:58;20.70;99.90
3846;DHT22;1938;50.812;7.738;2023-08-21T05:26:24;22.20;71.00
3846;DHT22;1938;50.812;7.738;2023-08-21T05:28:49;24.20;1.00
3846;DHT22;1938;50.812;7.738;2023-08-21T05:31:15;26.30;99.90
3846;DHT22;1938;50.812;7.738;2023-08-21T05:33:40;28.00;99.90
3846;DHT22;1938;50.812;7.738;2023-08-21T05:36:07;29.20;47.80
3846;DHT22;1938;50.812;7.738;2023-08-21T05:38:32;30.00;32.90
3846;DHT22;1938;50.812;7.738;2023-08-21T05:40:59;30.20;25.30
3846;DHT22;1938;50.812;7.738;2023-08-21T05:43:26;31.10;24.50
3846;DHT22;1938;50.812;7.738;2023-08-21T05:45:51;32.20;24.90
3846;DHT22;1938;50.812;7.738;2023-08-21T05:48:17;33.30;25.20
3846;DHT22;1938;50.812;7.738;2023-08-21T05:50:42;34.40;23.70
3846;DHT22;1938;50.812;7.738;2023-08-21T05:53:09;34.90;22.60
3846;DHT22;1938;50.812;7.738;2023-08-21T05:55:37;35.50;22.70
3846;DHT22;1938;50.812;7.738;2023-08-21T05:58:03;36.00;21.60
3846;DHT22;1938;50.812;7.738;2023-08-21T06:00:29;36.50;20.90
3846;DHT22;1938;50.812;7.738;2023-08-21T06:02:55;35.50;13.10
3846;DHT22;1938;50.812;7.738;2023-08-21T06:05:20;35.40;10.40
3846;DHT22;1938;50.812;7.738;2023-08-21T06:07:46;35.30;8.60
3846;DHT22;1938;50.812;7.738;2023-08-21T06:10:12;35.60;7.10
3846;DHT22;1938;50.812;7.738;2023-08-21T06:12:39;35.40;4.80
3846;DHT22;1938;50.812;7.738;2023-08-21T06:15:05;35.50;3.80
3846;DHT22;1938;50.812;7.738;2023-08-21T06:17:34;34.60;1.00
3846;DHT22;1938;50.812;7.738;2023-08-21T06:19:59;34.80;1.00
3846;DHT22;1938;50.812;7.738;2023-08-21T06:22:25;34.90;1.00
3846;DHT22;1938;50.812;7.738;2023-08-21T06:24:50;35.10;1.00
3846;DHT22;1938;50.812;7.738;2023-08-21T06:27:16;36.10;1.00
3846;DHT22;1938;50.812;7.738;2023-08-21T06:29:42;37.30;3.20
3846;DHT22;1938;50.812;7.738;2023-08-21T06:32:07;37.80;4.50
3846;DHT22;1938;50.812;7.738;2023-08-21T06:34:33;38.50;5.60
3846;DHT22;1938;50.812;7.738;2023-08-21T06:36:58;38.10;3.40
3846;DHT22;1938;50.812;7.738;2023-08-21T06:39:25;36.70;1.00
3846;DHT22;1938;50.812;7.738;2023-08-21T06:41:51;36.80;1.00
3846;DHT22;1938;50.812;7.738;2023-08-21T06:44:18;36.70;1.00
3846;DHT22;1938;50.812;7.738;2023-08-21T06:46:43;35.70;1.00
3846;DHT22;1938;50.812;7.738;2023-08-21T06:49:09;35.30;1.00
3846;DHT22;1938;50.812;7.738;2023-08-21T06:51:35;35.20;1.00
3846;DHT22;1938;50.812;7.738;2023-08-21T06:54:01;35.10;1.00
3846;DHT22;1938;50.812;7.738;2023-08-21T06:56:26;35.10;1.00
3846;DHT22;1938;50.812;7.738;2023-08-21T06:58:52;35.60;1.00
3846;DHT22;1938;50.812;7.738;2023-08-21T07:01:17;36.80;1.00
3846;DHT22;1938;50.812;7.738;2023-08-21T07:03:43;38.00;1.00
3846;DHT22;1938;50.812;7.738;2023-08-21T07:06:08;38.20;1.00
3846;DHT22;1938;50.812;7.738;2023-08-21T07:08:35;37.00;1.00
3846;DHT22;1938;50.812;7.738;2023-08-21T07:11:04;38.40;1.00
3846;DHT22;1938;50.812;7.738;2023-08-21T07:13:30;39.50;1.00
3846;DHT22;1938;50.812;7.738;2023-08-21T07:15:55;40.40;1.00
3846;DHT22;1938;50.812;7.738;2023-08-21T07:18:21;40.70;1.00
3846;DHT22;1938;50.812;7.738;2023-08-21T07:20:48;41.00;1.00
3846;DHT22;1938;50.812;7.738;2023-08-21T07:23:13;41.60;1.00
3846;DHT22;1938;50.812;7.738;2023-08-21T07:25:39;42.20;1.00
3846;DHT22;1938;50.812;7.738;2023-08-21T07:28:04;42.40;1.00
3846;DHT22;1938;50.812;7.738;2023-08-21T07:30:31;43.00;1.00
3846;DHT22;1938;50.812;7.738;2023-08-21T07:32:56;43.60;1.00
3846;DHT22;1938;50.812;7.738;2023-08-21T07:35:22;44.10;2.40
3846;DHT22;1938;50.812;7.738;2023-08-21T07:37:48;44.30;1.90
3846;DHT22;1938;50.812;7.738;2023-08-21T07:40:13;44.10;1.00
3846;DHT22;1938;50.812;7.738;2023-08-21T07:42:39;43.90;1.00
3846;DHT22;1938;50.812;7.738;2023-08-21T07:45:05;44.30;1.00
3846;DHT22;1938;50.812;7.738;2023-08-21T07:47:31;45.00;1.00
3846;DHT22;1938;50.812;7.738;2023-08-21T07:49:57;45.20;1.00
3846;DHT22;1938;50.812;7.738;2023-08-21T07:52:23;45.20;1.00
3846;DHT22;1938;50.812;7.738;2023-08-21T07:54:54;45.40;1.00
3846;DHT22;1938;50.812;7.738;2023-08-21T07:57:20;45.60;1.00
3846;DHT22;1938;50.812;7.738;2023-08-21T07:59:45;45.60;1.00
3846;DHT22;1938;50.812;7.738;2023-08-21T08:02:11;45.80;1.00
3846;DHT22;1938;50.812;7.738;2023-08-21T08:04:40;45.80;1.00
3846;DHT22;1938;50.812;7.738;2023-08-21T08:07:05;45.70;1.00
3846;DHT22;1938;50.812;7.738;2023-08-21T08:09:31;46.10;1.00
3846;DHT22;1938;50.812;7.738;2023-08-21T08:11:56;46.40;1.00
3846;DHT22;1938;50.812;7.738;2023-08-21T08:14:22;47.10;1.00
3846;DHT22;1938;50.812;7.738;2023-08-21T08:16:47;46.70;1.00
3846;DHT22;1938;50.812;7.738;2023-08-21T08:19:13;46.40;1.00
3846;DHT22;1938;50.812;7.738;2023-08-21T08:21:39;47.10;1.00
3846;DHT22;1938;50.812;7.738;2023-08-21T08:24:05;46.90;1.00
3846;DHT22;1938;50.812;7.738;2023-08-21T08:26:31;46.10;1.00
3846;DHT22;1938;50.812;7.738;2023-08-21T08:28:56;46.40;1.00
3846;DHT22;1938;50.812;7.738;2023-08-21T08:31:23;46.90;1.00
3846;DHT22;1938;50.812;7.738;2023-08-21T08:33:50;47.00;1.00
3846;DHT22;1938;50.812;7.738;2023-08-21T08:36:16;47.20;1.00
3846;DHT22;1938;50.812;7.738;2023-08-21T08:38:42;46.90;1.00
3846;DHT22;1938;50.812;7.738;2023-08-21T08:41:25;47.00;1.00
3846;DHT22;1938;50.812;7.738;2023-08-21T08:43:57;46.50;1.00
3846;DHT22;1938;50.812;7.738;2023-08-21T08:46:24;46.90;1.00
3846;DHT22;1938;50.812;7.738;2023-08-21T08:48:51;47.40;1.00
3846;DHT22;1938;50.812;7.738;2023-08-21T08:51:17;47.80;1.00
3846;DHT22;1938;50.812;7.738;2023-08-21T08:53:44;46.80;1.00
3846;DHT22;1938;50.812;7.738;2023-08-21T08:56:10;47.20;1.00
3846;DHT22;1938;50.812;7.738;2023-08-21T08:58:36;47.40;1.00
3846;DHT22;1938;50.812;7.738;2023-08-21T09:01:02;47.00;1.00
3846;DHT22;1938;50.812;7.738;2023-08-21T09:03:28;46.90;1.00
3846;DHT22;1938;50.812;7.738;2023-08-21T09:05:54;47.00;1.00
3846;DHT22;1938;50.812;7.738;2023-08-21T09:08:20;47.20;1.00
3846;DHT22;1938;50.812;7.738;2023-08-21T09:10:46;47.10;1.00
3846;DHT22;1938;50.812;7.738;2023-08-21T09:13:16;47.40;1.00
3846;DHT22;1938;50.812;7.738;2023-08-21T09:15:52;47.60;1.00
3846;DHT22;1938;50.812;7.738;2023-08-21T09:18:19;47.90;1.00
3846;DHT22;1938;50.812;7.738;2023-08-21T09:20:45;47.40;1.00
3846;DHT22;1938;50.812;7.738;2023-08-21T09:23:15;47.50;1.00
3846;DHT22;1938;50.812;7.738;2023-08-21T09:25:44;47.20;1.00
3846;DHT22;1938;50.812;7.738;2023-08-21T09:28:12;46.60;1.00
3846;DHT22;1938;50.812;7.738;2023-08-21T09:30:51;46.00;1.00
3846;DHT22;1938;50.812;7.738;2023-08-21T09:33:21;45.10;1.00
3846;DHT22;1938;50.812;7.738;2023-08-21T09:35:48;44.50;1.00
3846;DHT22;1938;50.812;7.738;2023-08-21T09:38:14;43.60;1.00
3846;DHT22;1938;50.812;7.738;2023-08-21T09:40:43;42.70;1.00
3846;DHT22;1938;50.812;7.738;2023-08-21T09:43:11;41.60;1.00
3846;DHT22;1938;50.812;7.738;2023-08-21T09:45:37;40.60;1.00
3846;DHT22;1938;50.812;7.738;2023-08-21T09:48:03;39.80;1.00
3846;DHT22;1938;50.812;7.738;2023-08-21T09:50:30;39.30;1.00
3846;DHT22;1938;50.812;7.738;2023-08-21T09:52:57;38.80;1.00
3846;DHT22;1938;50.812;7.738;2023-08-21T09:55:24;38.30;1.00
3846;DHT22;1938;50.812;7.738;2023-08-21T09:57:52;37.80;1.00
3846;DHT22;1938;50.812;7.738;2023-08-21T10:00:34;37.30;1.00
3846;DHT22;1938;50.812;7.738;2023-08-21T10:03:02;37.00;1.00
3846;DHT22;1938;50.812;7.738;2023-08-21T10:05:30;36.50;1.00
3846;DHT22;1938;50.812;7.738;2023-08-21T10:08:00;36.40;1.00
3846;DHT22;1938;50.812;7.738;2023-08-21T10:10:32;35.90;1.00
3846;DHT22;1938;50.812;7.738;2023-08-21T10:12:58;35.50;1.00
3846;DHT22;1938;50.812;7.738;2023-08-21T10:15:24;34.90;1.00
3846;DHT22;1938;50.812;7.738;2023-08-21T10:17:50;34.80;1.00
3846;DHT22;1938;50.812;7.738;2023-08-21T10:20:21;34.50;1.00
3846;DHT22;1938;50.812;7.738;2023-08-21T10:22:53;34.30;1.00
3846;DHT22;1938;50.812;7.738;2023-08-21T10:25:24;34.10;1.00
3846;DHT22;1938;50.812;7.738;2023-08-21T10:27:56;33.90;1.00
3846;DHT22;1938;50.812;7.738;2023-08-21T10:30:27;33.80;1.00
3846;DHT22;1938;50.812;7.738;2023-08-21T10:32:59;33.60;1.00
3846;DHT22;1938;50.812;7.738;2023-08-21T10:35:29;33.40;1.00
3846;DHT22;1938;50.812;7.738;2023-08-21T10:38:11;33.40;1.00
3846;DHT22;1938;50.812;7.738;2023-08-21T10:40:40;33.40;1.00
3846;DHT22;1938;50.812;7.738;2023-08-21T10:43:41;33.30;1.00
3846;DHT22;1938;50.812;7.738;2023-08-21T10:46:09;33.30;1.00
3846;DHT22;1938;50.812;7.738;2023-08-21T10:48:35;33.30;1.00
3846;DHT22;1938;50.812;7.738;2023-08-21T10:51:02;33.30;1.00
3846;DHT22;1938;50.812;7.738;2023-08-21T10:53:32;33.30;1.00
3846;DHT22;1938;50.812;7.738;2023-08-21T10:56:03;33.40;1.00
3846;DHT22;1938;50.812;7.738;2023-08-21T10:58:50;33.30;1.00
3846;DHT22;1938;50.812;7.738;2023-08-21T11:01:16;33.40;1.00
3846;DHT22;1938;50.812;7.738;2023-08-21T11:03:46;33.50;1.00
3846;DHT22;1938;50.812;7.738;2023-08-21T11:06:19;33.50;1.00
3846;DHT22;1938;50.812;7.738;2023-08-21T11:08:46;33.50;1.00
3846;DHT22;1938;50.812;7.738;2023-08-21T11:11:12;33.50;99.90
3846;DHT22;1938;50.812;7.738;2023-08-21T11:13:37;33.50;1.00
3846;DHT22;1938;50.812;7.738;2023-08-21T11:16:04;33.30;1.00
3846;DHT22;1938;50.812;7.738;2023-08-21T11:18:34;33.30;1.00
3846;DHT22;1938;50.812;7.738;2023-08-21T11:21:08;33.30;1.00
3846;DHT22;1938;50.812;7.738;2023-08-21T11:23:40;33.20;99.90
3846;DHT22;1938;50.812;7.738;2023-08-21T11:26:10;33.20;99.90
3846;DHT22;1938;50.812;7.738;2023-08-21T11:28:36;33.10;99.90
3846;DHT22;1938;50.812;7.738;2023-08-21T11:31:04;33.10;99.90
3846;DHT22;1938;50.812;7.738;2023-08-21T11:33:31;33.00;99.90
3846;DHT22;1938;50.812;7.738;2023-08-21T11:35:57;33.00;99.90
3846;DHT22;1938;50.812;7.738;2023-08-21T11:38:26;32.90;99.90
3846;DHT22;1938;50.812;7.738;2023-08-21T11:41:02;32.90;99.90
3846;DHT22;1938;50.812;7.738;2023-08-21T11:43:38;32.90;99.90
3846;DHT22;1938;50.812;7.738;2023-08-21T11:46:05;32.90;99.90
3846;DHT22;1938;50.812;7.738;2023-08-21T11:48:32;32.80;99.90
3846;DHT22;1938;50.812;7.738;2023-08-21T11:50:57;32.80;99.90
3846;DHT22;1938;50.812;7.738;2023-08-21T11:53:35;32.80;99.90
3846;DHT22;1938;50.812;7.738;2023-08-21T11:56:03;32.70;99.90
3846;DHT22;1938;50.812;7.738;2023-08-21T11:58:38;32.80;99.90
3846;DHT22;1938;50.812;7.738;2023-08-21T12:01:04;32.90;99.90
3846;DHT22;1938;50.812;7.738;2023-08-21T12:03:35;32.90;99.90
3846;DHT22;1938;50.812;7.738;2023-08-21T12:06:05;32.90;99.90
3846;DHT22;1938;50.812;7.738;2023-08-21T12:08:31;32.50;99.90
3846;DHT22;1938;50.812;7.738;2023-08-21T12:10:57;32.30;99.90
3846;DHT22;1938;50.812;7.738;2023-08-21T12:13:22;32.30;99.90
3846;DHT22;1938;50.812;7.738;2023-08-21T12:15:48;32.40;99.90
3846;DHT22;1938;50.812;7.738;2023-08-21T12:18:13;32.50;99.90
3846;DHT22;1938;50.812;7.738;2023-08-21T12:20:39;32.50;99.90
3846;DHT22;1938;50.812;7.738;2023-08-21T12:23:06;32.50;99.90
3846;DHT22;1938;50.812;7.738;2023-08-21T12:25:31;32.40;99.90
3846;DHT22;1938;50.812;7.738;2023-08-21T12:27:57;32.30;99.90
3846;DHT22;1938;50.812;7.738;2023-08-21T12:30:24;32.50;99.90
3846;DHT22;1938;50.812;7.738;2023-08-21T12:32:50;32.40;99.90
3846;DHT22;1938;50.812;7.738;2023-08-21T12:35:15;32.40;99.90
3846;DHT22;1938;50.812;7.738;2023-08-21T12:37:41;32.30;99.90
3846;DHT22;1938;50.812;7.738;2023-08-21T12:40:07;32.20;99.90
3846;DHT22;1938;50.812;7.738;2023-08-21T12:42:33;32.00;99.90
3846;DHT22;1938;50.812;7.738;2023-08-21T12:44:59;31.80;99.90
3846;DHT22;1938;50.812;7.738;2023-08-21T12:47:25;31.60;99.90
3846;DHT22;1938;50.812;7.738;2023-08-21T12:49:50;31.60;99.90
3846;DHT22;1938;50.812;7.738;2023-08-21T12:52:16;31.60;99.90
3846;DHT22;1938;50.812;7.738;2023-08-21T12:54:41;31.60;99.90
3846;DHT22;1938;50.812;7.738;2023-08-21T12:57:08;31.60;99.90
3846;DHT22;1938;50.812;7.738;2023-08-21T12:59:34;31.70;99.90
3846;DHT22;1938;50.812;7.738;2023-08-21T13:02:00;31.70;99.90
3846;DHT22;1938;50.812;7.738;2023-08-21T13:04:26;31.50;99.90
3846;DHT22;1938;50.812;7.738;2023-08-21T13:06:52;31.40;99.90
3846;DHT22;1938;50.812;7.738;2023-08-21T13:09:18;31.40;99.90
3846;DHT22;1938;50.812;7.738;2023-08-21T13:11:43;31.30;99.90
3846;DHT22;1938;50.812;7.738;2023-08-21T13:14:10;31.30;99.90
3846;DHT22;1938;50.812;7.738;2023-08-21T13:16:35;31.20;99.90
3846;DHT22;1938;50.812;7.738;2023-08-21T13:19:01;31.00;99.90
3846;DHT22;1938;50.812;7.738;2023-08-21T13:21:26;30.90;99.90
3846;DHT22;1938;50.812;7.738;2023-08-21T13:23:52;30.90;99.90
3846;DHT22;1938;50.812;7.738;2023-08-21T13:26:17;31.00;99.90
3846;DHT22;1938;50.812;7.738;2023-08-21T13:28:44;31.00;99.90
3846;DHT22;1938;50.812;7.738;2023-08-21T13:31:10;31.10;99.90
3846;DHT22;1938;50.812;7.738;2023-08-21T13:33:49;31.10;99.90
3846;DHT22;1938;50.812;7.738;2023-08-21T13:36:15;30.90;99.90
3846;DHT22;1938;50.812;7.738;2023-08-21T13:38:43;30.90;99.90
3846;DHT22;1938;50.812;7.738;2023-08-21T13:41:08;30.80;99.90
3846;DHT22;1938;50.812;7.738;2023-08-21T13:43:35;30.80;99.90
3846;DHT22;1938;50.812;7.738;2023-08-21T13:46:01;30.70;99.90
3846;DHT22;1938;50.812;7.738;2023-08-21T13:48:29;30.80;99.90
3846;DHT22;1938;50.812;7.738;2023-08-21T13:50:55;30.70;99.90
3846;DHT22;1938;50.812;7.738;2023-08-21T13:53:21;30.70;99.90
3846;DHT22;1938;50.812;7.738;2023-08-21T13:55:47;30.70;99.90
3846;DHT22;1938;50.812;7.738;2023-08-21T13:58:12;30.80;99.90
3846;DHT22;1938;50.812;7.738;2023-08-21T14:00:38;30.70;99.90
3846;DHT22;1938;50.812;7.738;2023-08-21T14:03:04;30.70;99.90
3846;DHT22;1938;50.812;7.738;2023-08-21T14:05:30;30.70;99.90
3846;DHT22;1938;50.812;7.738;2023-08-21T14:07:57;30.70;99.90
3846;DHT22;1938;50.812;7.738;2023-08-21T14:10:23;30.60;99.90
3846;DHT22;1938;50.812;7.738;2023-08-21T14:12:49;30.50;99.90
3846;DHT22;1938;50.812;7.738;2023-08-21T14:15:16;30.40;99.90
3846;DHT22;1938;50.812;7.738;2023-08-21T14:17:43;30.40;99.90
3846;DHT22;1938;50.812;7.738;2023-08-21T14:20:09;30.30;99.90
3846;DHT22;1938;50.812;7.738;2023-08-21T14:22:37;30.20;99.90
3846;DHT22;1938;50.812;7.738;2023-08-21T14:25:03;30.30;99.90
3846;DHT22;1938;50.812;7.738;2023-08-21T14:27:32;30.30;99.90
3846;DHT22;1938;50.812;7.738;2023-08-21T14:29:58;30.50;99.90
3846;DHT22;1938;50.812;7.738;2023-08-21T14:32:25;30.60;99.90
3846;DHT22;1938;50.812;7.738;2023-08-21T14:34:51;30.80;99.90
3846;DHT22;1938;50.812;7.738;2023-08-21T14:37:20;30.80;99.90
3846;DHT22;1938;50.812;7.738;2023-08-21T14:39:46;30.90;99.90
3846;DHT22;1938;50.812;7.738;2023-08-21T14:42:13;30.80;99.90
3846;DHT22;1938;50.812;7.738;2023-08-21T14:44:39;30.90;99.90
3846;DHT22;1938;50.812;7.738;2023-08-21T14:47:04;30.80;99.90
3846;DHT22;1938;50.812;7.738;2023-08-21T14:49:30;30.80;99.90
3846;DHT22;1938;50.812;7.738;2023-08-21T14:51:56;30.70;99.90
3846;DHT22;1938;50.812;7.738;2023-08-21T14:54:21;30.70;99.90
3846;DHT22;1938;50.812;7.738;2023-08-21T14:56:47;30.60;99.90
3846;DHT22;1938;50.812;7.738;2023-08-21T14:59:13;30.40;99.90
3846;DHT22;1938;50.812;7.738;2023-08-21T15:01:40;30.40;99.90
3846;DHT22;1938;50.812;7.738;2023-08-21T15:04:06;30.40;99.90
3846;DHT22;1938;50.812;7.738;2023-08-21T15:06:32;30.20;99.90
3846;DHT22;1938;50.812;7.738;2023-08-21T15:08:59;30.10;99.90
3846;DHT22;1938;50.812;7.738;2023-08-21T15:11:24;30.00;99.90
3846;DHT22;1938;50.812;7.738;2023-08-21T15:13:50;30.00;99.90
3846;DHT22;1938;50.812;7.738;2023-08-21T15:16:15;29.80;99.90
3846;DHT22;1938;50.812;7.738;2023-08-21T15:18:41;29.70;99.90
3846;DHT22;1938;50.812;7.738;2023-08-21T15:21:07;29.40;99.90
3846;DHT22;1938;50.812;7.738;2023-08-21T15:23:32;29.30;99.90
3846;DHT22;1938;50.812;7.738;2023-08-21T15:25:59;29.20;99.90
3846;DHT22;1938;50.812;7.738;2023-08-21T15:28:24;29.00;99.90
3846;DHT22;1938;50.812;7.738;2023-08-21T15:30:50;29.10;99.90
3846;DHT22;1938;50.812;7.738;2023-08-21T15:33:15;29.10;99.90
3846;DHT22;1938;50.812;7.738;2023-08-21T15:35:41;29.20;99.90
3846;DHT22;1938;50.812;7.738;2023-08-21T15:38:06;29.20;99.90
3846;DHT22;1938;50.812;7.738;2023-08-21T15:40:32;29.10;99.90
3846;DHT22;1938;50.812;7.738;2023-08-21T15:43:02;29.00;99.90
3846;DHT22;1938;50.812;7.738;2023-08-21T15:45:29;28.80;99.90
3846;DHT22;1938;50.812;7.738;2023-08-21T15:47:55;28.70;99.90
3846;DHT22;1938;50.812;7.738;2023-08-21T15:50:21;28.70;99.90
3846;DHT22;1938;50.812;7.738;2023-08-21T15:52:47;28.70;99.90
3846;DHT22;1938;50.812;7.738;2023-08-21T15:55:14;28.90;99.90
3846;DHT22;1938;50.812;7.738;2023-08-21T15:57:39;28.80;99.90
3846;DHT22;1938;50.812;7.738;2023-08-21T16:00:06;28.70;99.90
3846;DHT22;1938;50.812;7.738;2023-08-21T16:02:33;28.60;99.90
3846;DHT22;1938;50.812;7.738;2023-08-21T16:04:59;28.50;99.90
3846;DHT22;1938;50.812;7.738;2023-08-21T16:07:25;28.70;99.90
3846;DHT22;1938;50.812;7.738;2023-08-21T16:09:50;28.70;99.90